Time;durP1;ratioP1;P1;durP2;ratioP2;P2;SDS_P1;SDS_P2;PMS_P1;PMS_P2;Temp;Humidity;BMP_temperature;BMP_pressure;BME280_temperature;BME280_humidity;BME280_pressure;Samples;Min_cycle;Max_cycle;Signal;HPM_P1;HPM_P2
2022/11/21 00:02:44;;;;;;;0.10;0.10;;;;;;;3.67;100.00;95288.16;4977810;28;20042;-73
2022/11/21 00:05:31;;;;;;;0.10;0.10;;;;;;;3.68;100.00;95300.34;4977086;28;20078;-72
2022/11/21 00:08:19;;;;;;;0.20;0.20;;;;;;;3.76;100.00;95299.19;4974606;28;20042;-73
2022/11/21 00:11:05;;;;;;;0.10;0.10;;;;;;;3.78;100.00;95294.44;4976876;28;20506;-73
2022/11/21 00:13:51;;;;;;;0.10;0.10;;;;;;;3.76;100.00;95291.25;4977213;28;20042;-74
2022/11/21 00:16:39;;;;;;;0.10;0.10;;;;;;;3.68;100.00;95273.88;4974527;28;20611;-74
2022/11/21 00:19:25;;;;;;;0.10;0.10;;;;;;;3.62;100.00;95291.50;4979628;28;20046;-74
2022/11/21 00:22:10;;;;;;;0.10;0.10;;;;;;;3.53;100.00;95292.09;4975435;28;20521;-70
2022/11/21 00:24:57;;;;;;;0.10;0.10;;;;;;;3.56;100.00;95295.06;4979773;28;20255;-72
2022/11/21 00:27:43;;;;;;;0.10;0.10;;;;;;;3.50;100.00;95288.06;4975907;28;20046;-74
2022/11/21 00:30:29;;;;;;;0.10;0.10;;;;;;;3.54;100.00;95288.41;4978459;28;20485;-72
2022/11/21 00:33:15;;;;;;;0.10;0.10;;;;;;;3.58;100.00;95287.72;4977134;28;20050;-73
2022/11/21 00:36:08;;;;;;;0.10;0.10;;;;;;;3.59;100.00;95278.75;4977417;28;20034;-73
2022/11/21 00:38:54;;;;;;;0.20;0.20;;;;;;;3.62;100.00;95286.19;4979161;28;20351;-71
2022/11/21 00:41:39;;;;;;;0.20;0.20;;;;;;;3.67;100.00;95287.34;4976985;28;20427;-73
2022/11/21 00:44:25;;;;;;;0.20;0.20;;;;;;;3.75;100.00;95271.13;4975571;28;20274;-72
2022/11/21 00:47:11;;;;;;;0.10;0.10;;;;;;;3.77;100.00;95277.78;4975140;28;20129;-72
2022/11/21 00:49:57;;;;;;;0.10;0.10;;;;;;;3.79;100.00;95267.75;4979279;28;20043;-74
2022/11/21 00:52:43;;;;;;;0.10;0.10;;;;;;;3.87;100.00;95269.22;4978153;28;20046;-73
2022/11/21 00:55:28;;;;;;;0.10;0.10;;;;;;;3.80;100.00;95250.81;4977898;28;20255;-74
2022/11/21 00:58:14;;;;;;;0.20;0.20;;;;;;;3.90;100.00;95282.81;4976269;28;20374;-71
2022/11/21 01:01:09;;;;;;;0.10;0.10;;;;;;;3.95;100.00;95286.56;4977805;28;20142;-73
2022/11/21 01:03:57;;;;;;;0.10;0.10;;;;;;;3.97;100.00;95279.19;4974507;28;20116;-71
2022/11/21 01:06:43;;;;;;;0.10;0.10;;;;;;;3.99;100.00;95277.13;4971752;28;20144;-73
2022/11/21 01:09:29;;;;;;;0.15;0.15;;;;;;;3.99;100.00;95280.59;4975202;28;20099;-73
2022/11/21 01:12:14;;;;;;;0.20;0.20;;;;;;;3.99;100.00;95270.00;4977394;28;20562;-72
2022/11/21 01:15:00;;;;;;;0.10;0.10;;;;;;;4.02;100.00;95282.75;4976405;28;20046;-74
2022/11/21 01:17:46;;;;;;;0.10;0.10;;;;;;;4.04;100.00;95283.31;4981053;28;20267;-74
2022/11/21 01:20:32;;;;;;;0.10;0.10;;;;;;;4.01;100.00;95261.81;4982251;28;20656;-74
2022/11/21 01:23:18;;;;;;;0.17;0.17;;;;;;;4.03;100.00;95279.06;4945656;28;20329;-74
2022/11/21 01:26:06;;;;;;;0.10;0.10;;;;;;;4.07;100.00;95288.16;4966291;28;20380;-73
2022/11/21 01:28:52;;;;;;;0.10;0.10;;;;;;;4.05;100.00;95274.34;4979155;28;20194;-72
2022/11/21 01:31:38;;;;;;;0.10;0.10;;;;;;;4.06;100.00;95281.25;4979111;28;20747;-70
2022/11/21 01:34:24;;;;;;;0.10;0.10;;;;;;;4.02;100.00;95272.16;4977890;28;20419;-74
2022/11/21 01:37:09;;;;;;;0.10;0.10;;;;;;;4.06;100.00;95277.81;4977769;28;20053;-73
2022/11/21 01:39:56;;;;;;;0.10;0.10;;;;;;;4.06;100.00;95286.56;4981467;28;20681;-70
2022/11/21 01:43:01;;;;;;;0.20;0.20;;;;;;;4.09;100.00;95290.56;4978180;28;20426;-70
2022/11/21 01:45:54;;;;;;;0.20;0.20;;;;;;;4.08;100.00;95279.16;4981641;28;20045;-72
2022/11/21 01:48:57;;;;;;;0.20;0.20;;;;;;;4.08;100.00;95281.81;4975099;28;21055;-72
2022/11/21 01:51:52;;;;;;;0.10;0.10;;;;;;;4.06;100.00;95291.03;4969932;28;20322;-73
2022/11/21 01:54:45;;;;;;;0.10;0.10;;;;;;;4.09;100.00;95288.72;4978560;28;20459;-74
2022/11/21 01:57:42;;;;;;;0.10;0.10;;;;;;;4.10;100.00;95281.56;4977554;28;20490;-70
2022/11/21 02:00:34;;;;;;;0.20;0.20;;;;;;;4.04;100.00;95282.50;4978332;28;20326;-74
2022/11/21 02:03:23;;;;;;;0.20;0.20;;;;;;;4.09;100.00;95278.13;4979969;28;20165;-71
2022/11/21 02:06:11;;;;;;;0.20;0.20;;;;;;;4.10;100.00;95276.28;4980416;28;20049;-73
2022/11/21 02:08:59;;;;;;;0.10;0.10;;;;;;;4.10;100.00;95286.88;4977024;28;20151;-75
2022/11/21 02:11:51;;;;;;;0.10;0.10;;;;;;;4.10;100.00;95292.97;4978671;28;20050;-74
2022/11/21 02:14:39;;;;;;;0.20;0.20;;;;;;;4.08;100.00;95279.16;4980401;28;20125;-73
2022/11/21 02:17:28;;;;;;;0.10;0.10;;;;;;;4.09;100.00;95307.25;4976795;28;20052;-75
2022/11/21 02:20:16;;;;;;;0.20;0.20;;;;;;;4.07;100.00;95298.75;4980692;28;20038;-75
2022/11/21 02:23:17;;;;;;;0.10;0.10;;;;;;;4.13;100.00;95297.81;4978596;28;20372;-75
2022/11/21 02:26:03;;;;;;;0.10;0.10;;;;;;;4.12;100.00;95295.38;4979780;28;20046;-72
2022/11/21 02:28:49;;;;;;;0.20;0.20;;;;;;;4.10;100.00;95310.69;4963786;28;20575;-70
2022/11/21 02:31:35;;;;;;;0.10;0.10;;;;;;;4.10;100.00;95298.25;4978490;28;20355;-76
2022/11/21 02:34:21;;;;;;;0.10;0.10;;;;;;;4.06;100.00;95299.78;4970042;28;20049;-74
2022/11/21 02:37:10;;;;;;;0.20;0.20;;;;;;;4.10;100.00;95292.16;4979890;28;20049;-74
2022/11/21 02:39:59;;;;;;;0.10;0.10;;;;;;;4.08;100.00;95289.75;4978984;28;20100;-73
2022/11/21 02:42:56;;;;;;;0.10;0.10;;;;;;;4.05;100.00;95308.78;4979524;28;20046;-75
2022/11/21 02:45:44;;;;;;;0.20;0.20;;;;;;;4.05;100.00;95286.78;4979353;28;20533;-72
2022/11/21 02:48:30;;;;;;;0.10;0.10;;;;;;;4.01;100.00;95320.84;4977278;28;20983;-74
2022/11/21 02:51:16;;;;;;;0.10;0.10;;;;;;;3.92;100.00;95298.44;4965409;28;20079;-72
2022/11/21 02:54:04;;;;;;;0.13;0.13;;;;;;;3.91;100.00;95299.50;4977960;28;20616;-73
2022/11/21 02:56:50;;;;;;;0.10;0.10;;;;;;;3.96;100.00;95296.13;4979193;28;20133;-72
2022/11/21 02:59:36;;;;;;;0.20;0.20;;;;;;;3.95;100.00;95294.50;4966076;28;20112;-73
2022/11/21 03:02:22;;;;;;;0.10;0.10;;;;;;;3.94;100.00;95288.41;4977514;28;20236;-73
2022/11/21 03:05:11;;;;;;;0.10;0.10;;;;;;;3.96;100.00;95307.50;4978588;28;20145;-72
2022/11/21 03:07:57;;;;;;;0.10;0.10;;;;;;;3.95;100.00;95303.25;4975468;28;20167;-71
2022/11/21 03:10:43;;;;;;;0.10;0.10;;;;;;;3.89;100.00;95305.03;4978120;28;20042;-73
2022/11/21 03:13:29;;;;;;;0.13;0.13;;;;;;;3.89;100.00;95322.72;4977700;28;20038;-73
2022/11/21 03:16:14;;;;;;;0.10;0.10;;;;;;;3.90;100.00;95324.34;4977831;28;20069;-71
2022/11/21 03:19:01;;;;;;;0.10;0.10;;;;;;;3.86;100.00;95320.56;4967944;28;20046;-71
2022/11/21 03:21:47;;;;;;;0.10;0.10;;;;;;;3.85;100.00;95314.44;4972333;28;20046;-73
2022/11/21 03:24:33;;;;;;;0.17;0.17;;;;;;;3.80;100.00;95311.69;4952040;28;20045;-73
2022/11/21 03:27:18;;;;;;;0.20;0.20;;;;;;;3.80;100.00;95321.47;4969414;28;20253;-69
2022/11/21 03:30:05;;;;;;;0.10;0.10;;;;;;;3.80;100.00;95332.06;4974165;28;20061;-70
2022/11/21 03:32:54;;;;;;;0.15;0.15;;;;;;;3.79;100.00;95317.22;4974661;28;20269;-71
2022/11/21 03:35:41;;;;;;;0.15;0.15;;;;;;;3.78;100.00;95311.13;4976465;28;20038;-69
2022/11/21 03:38:27;;;;;;;0.10;0.10;;;;;;;3.80;100.00;95311.69;4953351;28;21368;-72
2022/11/21 03:41:28;;;;;;;0.20;0.20;;;;;;;3.78;100.00;95331.50;4976479;28;20116;-72
2022/11/21 03:44:14;;;;;;;0.10;0.10;;;;;;;3.80;100.00;95318.84;4971573;28;20145;-70
2022/11/21 03:47:00;;;;;;;0.20;0.20;;;;;;;3.78;100.00;95323.56;4975195;28;20273;-72
2022/11/21 03:49:45;;;;;;;0.20;0.20;;;;;;;3.75;100.00;95337.28;4968257;28;20046;-72
2022/11/21 03:52:32;;;;;;;0.10;0.10;;;;;;;3.76;100.00;95323.81;4969328;28;20050;-71
2022/11/21 03:55:18;;;;;;;0.20;0.20;;;;;;;3.73;100.00;95320.78;4964134;28;20105;-69
2022/11/21 03:58:04;;;;;;;0.10;0.10;;;;;;;3.81;100.00;95331.84;4955311;28;20138;-70
2022/11/21 04:00:50;;;;;;;0.10;0.10;;;;;;;3.79;100.00;95322.50;4973076;28;20351;-72
2022/11/21 04:03:36;;;;;;;0.10;0.10;;;;;;;3.78;100.00;95329.66;4970882;28;20416;-73
2022/11/21 04:06:22;;;;;;;0.20;0.20;;;;;;;3.80;100.00;95340.81;4971643;28;20543;-73
2022/11/21 04:09:08;;;;;;;0.10;0.10;;;;;;;3.71;100.00;95326.31;4974028;28;20046;-71
2022/11/21 04:11:53;;;;;;;0.10;0.10;;;;;;;3.72;100.00;95340.38;4965370;28;20058;-70
2022/11/21 04:14:39;;;;;;;0.10;0.10;;;;;;;3.74;100.00;95340.94;4975863;28;20052;-72
2022/11/21 04:17:25;;;;;;;0.20;0.20;;;;;;;3.76;100.00;95349.47;4969601;28;20769;-72
2022/11/21 04:20:11;;;;;;;0.10;0.10;;;;;;;3.80;100.00;95340.00;4968134;28;20592;-72
2022/11/21 04:22:57;;;;;;;0.10;0.10;;;;;;;3.82;100.00;95330.00;4970080;28;20513;-72
2022/11/21 04:25:42;;;;;;;0.10;0.10;;;;;;;3.82;100.00;95343.25;4971932;28;20398;-71
2022/11/21 04:28:28;;;;;;;0.13;0.13;;;;;;;3.80;100.00;95351.38;4974712;28;20045;-70
2022/11/21 04:31:15;;;;;;;0.10;0.10;;;;;;;3.74;100.00;95348.88;4967447;28;20054;-71
2022/11/21 04:34:01;;;;;;;0.20;0.20;;;;;;;3.78;100.00;95347.38;4974100;28;20049;-72
2022/11/21 04:36:47;;;;;;;0.10;0.10;;;;;;;3.77;100.00;95353.72;4972908;28;20034;-74
2022/11/21 04:39:32;;;;;;;0.10;0.10;;;;;;;3.81;100.00;95354.84;4959229;28;20279;-72
2022/11/21 04:42:18;;;;;;;0.10;0.10;;;;;;;3.75;100.00;95350.50;4971416;28;20065;-70
2022/11/21 04:45:05;;;;;;;0.10;0.10;;;;;;;3.77;100.00;95373.03;4968434;28;20094;-72
2022/11/21 04:47:51;;;;;;;0.20;0.20;;;;;;;3.73;100.00;95352.56;4974118;28;20411;-72
2022/11/21 04:50:37;;;;;;;0.20;0.20;;;;;;;3.67;100.00;95359.59;4970436;28;20078;-71
2022/11/21 04:53:23;;;;;;;0.10;0.10;;;;;;;3.70;100.00;95355.66;4978578;28;20455;-72
2022/11/21 04:56:09;;;;;;;0.20;0.20;;;;;;;3.69;100.00;95346.94;4963308;28;20042;-73
2022/11/21 04:58:55;;;;;;;0.10;0.10;;;;;;;3.66;100.00;95347.41;4973584;28;20244;-75
2022/11/21 05:01:41;;;;;;;0.10;0.10;;;;;;;3.64;100.00;95352.91;4971026;28;20069;-72
2022/11/21 05:04:27;;;;;;;0.20;0.20;;;;;;;3.68;100.00;95355.09;4972167;28;20046;-71
2022/11/21 05:07:13;;;;;;;0.10;0.10;;;;;;;3.70;100.00;95358.31;4970739;28;20664;-70
2022/11/21 05:09:58;;;;;;;0.20;0.20;;;;;;;3.72;100.00;95346.44;4974299;28;20465;-72
2022/11/21 05:15:55;;;;;;;0.20;0.20;;;;;;;3.79;100.00;95354.28;4976295;28;20046;-72
2022/11/21 05:18:41;;;;;;;0.10;0.10;;;;;;;3.79;100.00;95347.13;4976747;28;20140;-72
2022/11/21 05:21:27;;;;;;;0.10;0.10;;;;;;;3.82;100.00;95354.63;4963820;28;20538;-72
2022/11/21 05:24:13;;;;;;;0.15;0.15;;;;;;;3.82;100.00;95348.53;4977049;28;20459;-75
2022/11/21 05:26:59;;;;;;;0.20;0.20;;;;;;;3.87;100.00;95365.31;4981286;28;20046;-74
2022/11/21 05:29:46;;;;;;;0.20;0.20;;;;;;;3.85;100.00;95363.94;4971095;28;20160;-73
2022/11/21 05:32:32;;;;;;;0.10;0.10;;;;;;;3.86;100.00;95360.25;4972828;28;20042;-73
2022/11/21 05:35:18;;;;;;;0.20;0.20;;;;;;;3.86;100.00;95355.75;4962050;28;20491;-73
2022/11/21 05:38:04;;;;;;;0.20;0.20;;;;;;;3.86;100.00;95354.97;4971808;28;20038;-69
2022/11/21 05:40:52;;;;;;;0.10;0.10;;;;;;;3.84;100.00;95351.75;4977181;28;20425;-72
2022/11/21 05:43:48;;;;;;;0.10;0.10;;;;;;;3.91;100.00;95355.88;4963139;28;20050;-73
2022/11/21 05:46:34;;;;;;;0.15;0.15;;;;;;;3.88;100.00;95360.81;4981272;28;20447;-73
2022/11/21 05:49:20;;;;;;;0.20;0.20;;;;;;;3.90;100.00;95364.06;4976063;28;20355;-74
2022/11/21 05:52:06;;;;;;;0.20;0.20;;;;;;;3.90;100.00;95358.75;4969833;28;20043;-70
2022/11/21 05:54:52;;;;;;;0.20;0.20;;;;;;;3.91;100.00;95360.38;4964993;28;20054;-75
2022/11/21 05:57:38;;;;;;;0.20;0.20;;;;;;;3.88;100.00;95360.81;4977005;28;20041;-70
2022/11/21 06:00:23;;;;;;;0.10;0.10;;;;;;;3.89;100.00;95346.53;4981389;28;20067;-70
2022/11/21 06:03:31;;;;;;;0.10;0.10;;;;;;;3.94;100.00;95362.53;4966698;28;20077;-75
2022/11/21 06:06:17;;;;;;;0.10;0.10;;;;;;;3.96;100.00;95359.66;4981366;28;20057;-73
2022/11/21 06:09:03;;;;;;;0.20;0.20;;;;;;;4.00;100.00;95355.50;4979006;28;20070;-71
2022/11/21 06:11:49;;;;;;;0.20;0.20;;;;;;;4.03;100.00;95360.31;4980774;28;20589;-71
2022/11/21 06:14:35;;;;;;;0.15;0.15;;;;;;;3.97;100.00;95354.16;4980161;28;20066;-72
2022/11/21 06:17:21;;;;;;;0.20;0.20;;;;;;;4.03;100.00;95360.31;4979371;28;20046;-72
2022/11/21 06:20:07;;;;;;;0.20;0.20;;;;;;;4.05;100.00;95347.69;4978555;28;20065;-72
2022/11/21 06:22:53;;;;;;;0.20;0.20;;;;;;;4.04;100.00;95344.19;4971738;28;20499;-69
2022/11/21 06:25:39;;;;;;;0.20;0.20;;;;;;;4.09;100.00;95346.16;4979375;28;20042;-70
2022/11/21 06:28:30;;;;;;;0.20;0.20;;;;;;;4.06;100.00;95350.09;4962350;28;20423;-75
2022/11/21 06:31:21;;;;;;;0.10;0.10;;;;;;;4.06;100.00;95344.00;4981931;28;20054;-73
2022/11/21 06:34:06;;;;;;;0.20;0.20;;;;;;;4.07;100.00;95343.75;4976778;28;20173;-74
2022/11/21 06:36:53;;;;;;;0.30;0.30;;;;;;;4.05;100.00;95342.38;4976269;28;20042;-74
2022/11/21 06:39:38;;;;;;;0.20;0.20;;;;;;;4.07;100.00;95341.09;4978924;28;20141;-72
2022/11/21 06:42:24;;;;;;;0.20;0.20;;;;;;;4.01;100.00;95342.03;4980828;28;20471;-72
2022/11/21 06:45:10;;;;;;;0.20;0.20;;;;;;;4.09;100.00;95346.97;4979644;28;20074;-73
2022/11/21 06:47:56;;;;;;;0.20;0.20;;;;;;;4.15;100.00;95340.75;4978324;28;20050;-72
2022/11/21 06:50:42;;;;;;;0.13;0.13;;;;;;;4.16;100.00;95345.00;4965549;28;20051;-74
2022/11/21 06:53:27;;;;;;;0.13;0.13;;;;;;;4.15;100.00;95346.03;4977263;28;20034;-75
2022/11/21 06:56:14;;;;;;;0.10;0.10;;;;;;;4.20;100.00;95342.66;4968896;28;20046;-72
2022/11/21 06:59:00;;;;;;;0.20;0.20;;;;;;;4.27;100.00;95345.97;4977129;28;20626;-75
2022/11/21 07:01:46;;;;;;;0.15;0.15;;;;;;;4.28;100.00;95347.63;4977437;28;20045;-74
2022/11/21 07:04:32;;;;;;;0.20;0.20;;;;;;;4.24;100.00;95356.25;4978527;28;20042;-75
2022/11/21 07:07:18;;;;;;;0.10;0.10;;;;;;;4.17;100.00;95341.28;4977365;28;20104;-73
2022/11/21 07:10:04;;;;;;;0.20;0.20;;;;;;;4.12;100.00;95354.44;4979854;28;20042;-74
2022/11/21 07:16:01;;;;;;;0.10;0.10;;;;;;;4.01;100.00;95368.50;4979858;28;20126;-74
2022/11/21 07:18:46;;;;;;;0.20;0.20;;;;;;;4.04;100.00;95375.97;4977952;28;20080;-75
2022/11/21 07:21:32;;;;;;;0.20;0.20;;;;;;;4.04;100.00;95359.28;4973266;28;20054;-74
2022/11/21 07:24:18;;;;;;;0.10;0.10;;;;;;;4.06;100.00;95368.63;4979185;28;20100;-75
2022/11/21 07:27:04;;;;;;;0.10;0.10;;;;;;;4.04;100.00;95377.81;4980281;28;20042;-74
2022/11/21 07:29:50;;;;;;;0.10;0.10;;;;;;;4.04;100.00;95377.81;4953663;28;20373;-74
2022/11/21 07:32:36;;;;;;;0.10;0.10;;;;;;;4.02;100.00;95380.69;4632848;28;10000062;-74
2022/11/21 07:35:22;;;;;;;0.10;0.10;;;;;;;4.04;100.00;95389.22;4981632;28;20060;-75
2022/11/21 07:38:08;;;;;;;0.20;0.20;;;;;;;4.01;100.00;95378.28;4976478;28;20446;-73
2022/11/21 07:40:57;;;;;;;0.10;0.10;;;;;;;4.14;100.00;95381.50;4979784;28;20220;-73
2022/11/21 07:43:42;;;;;;;0.10;0.10;;;;;;;4.08;100.00;95371.03;4982539;28;20240;-74
2022/11/21 07:46:29;;;;;;;0.10;0.10;;;;;;;4.17;100.00;95375.72;4980146;28;20137;-71
2022/11/21 07:49:15;;;;;;;0.10;0.10;;;;;;;4.16;100.00;95370.66;4978961;28;20115;-73
2022/11/21 07:52:00;;;;;;;0.10;0.10;;;;;;;4.07;100.00;95367.56;4971172;28;20510;-75
2022/11/21 07:54:46;;;;;;;0.17;0.17;;;;;;;4.13;100.00;95377.25;4976402;28;20104;-73
2022/11/21 07:57:33;;;;;;;0.10;0.10;;;;;;;4.00;100.00;95366.09;4979839;28;20501;-78
2022/11/21 08:00:19;;;;;;;0.15;0.15;;;;;;;3.98;100.00;95362.88;4979939;28;20550;-74
2022/11/21 08:03:08;;;;;;;0.10;0.10;;;;;;;4.04;100.00;95362.72;4979843;28;20058;-71
2022/11/21 08:05:54;;;;;;;0.10;0.10;;;;;;;4.10;100.00;95361.81;4980608;28;20439;-72
2022/11/21 08:08:39;;;;;;;0.10;0.10;;;;;;;4.17;100.00;95362.47;4975241;28;20511;-74
2022/11/21 08:11:25;;;;;;;0.10;0.10;;;;;;;4.19;100.00;95360.41;4968151;28;20073;-72
2022/11/21 08:14:11;;;;;;;0.20;0.20;;;;;;;4.23;100.00;95362.59;4979055;28;20042;-71
2022/11/21 08:16:57;;;;;;;0.10;0.10;;;;;;;4.23;100.00;95362.59;4977293;28;20060;-74
2022/11/21 08:19:43;;;;;;;0.20;0.20;;;;;;;4.12;100.00;95369.50;4978387;28;20034;-72
2022/11/21 08:22:29;;;;;;;0.10;0.10;;;;;;;4.12;100.00;95370.31;4979379;28;20432;-73
2022/11/21 08:25:15;;;;;;;0.20;0.20;;;;;;;4.19;100.00;95360.41;4976096;28;20522;-72
2022/11/21 08:28:01;;;;;;;0.20;0.20;;;;;;;4.34;100.00;95364.38;4978063;28;20105;-73
2022/11/21 08:30:48;;;;;;;0.13;0.13;;;;;;;4.36;100.00;95360.47;4977807;28;20034;-74
2022/11/21 08:33:33;;;;;;;0.10;0.10;;;;;;;4.17;100.00;95366.97;4978204;28;20046;-72
2022/11/21 08:36:19;;;;;;;0.13;0.13;;;;;;;4.31;100.00;95368.31;4978911;28;20045;-74
2022/11/21 08:39:05;;;;;;;0.10;0.10;;;;;;;4.35;100.00;95372.09;4977687;28;20201;-75
2022/11/21 08:42:03;;;;;;;0.10;0.10;;;;;;;4.31;100.00;95368.31;4950490;28;20514;-74
2022/11/21 08:44:49;;;;;;;0.20;0.20;;;;;;;4.37;100.00;95361.28;4979110;28;20078;-75
2022/11/21 08:47:35;;;;;;;0.20;0.20;;;;;;;4.41;100.00;95360.56;4978685;28;20054;-76
2022/11/21 08:50:22;;;;;;;0.20;0.20;;;;;;;4.48;100.00;95352.47;4979254;28;20305;-73
2022/11/21 08:53:08;;;;;;;0.10;0.10;;;;;;;4.49;100.00;95343.47;4978384;28;20140;-75
2022/11/21 08:55:54;;;;;;;0.20;0.20;;;;;;;4.57;100.00;95340.44;4979650;28;20046;-75
2022/11/21 08:58:40;;;;;;;0.10;0.10;;;;;;;4.68;100.00;95352.06;4976172;28;20049;-74
2022/11/21 09:01:26;;;;;;;0.20;0.20;;;;;;;4.74;100.00;95348.44;4977104;28;20298;-75
2022/11/21 09:04:12;;;;;;;0.20;0.20;;;;;;;4.69;100.00;95349.16;4978251;28;20042;-74
2022/11/21 09:06:58;;;;;;;0.20;0.20;;;;;;;4.82;100.00;95366.59;4977257;28;20049;-75
2022/11/21 09:09:44;;;;;;;0.10;0.10;;;;;;;4.60;100.00;95361.19;4979239;28;20511;-75
2022/11/21 09:12:30;;;;;;;0.15;0.15;;;;;;;4.37;100.00;95372.69;4977779;28;20101;-73
2022/11/21 09:18:20;;;;;;;0.20;0.20;;;;;;;4.74;100.00;95366.97;4967425;28;20530;-73
2022/11/21 09:21:06;;;;;;;0.10;0.10;;;;;;;4.58;100.00;95363.25;4979428;28;20544;-76
2022/11/21 09:23:52;;;;;;;0.20;0.20;;;;;;;4.44;100.00;95373.34;4975069;28;21398;-75
2022/11/21 09:26:38;;;;;;;0.17;0.17;;;;;;;4.40;100.00;95366.09;4978537;28;20065;-76
2022/11/21 09:29:24;;;;;;;0.20;0.20;;;;;;;4.61;100.00;95370.75;4975900;28;20042;-72
2022/11/21 09:32:09;;;;;;;0.10;0.10;;;;;;;4.63;100.00;95365.19;4976779;28;20340;-74
2022/11/21 09:34:55;;;;;;;0.20;0.20;;;;;;;4.77;100.00;95366.53;4975737;28;20047;-72
2022/11/21 09:37:41;;;;;;;0.13;0.13;;;;;;;4.88;100.00;95365.66;4978320;28;20054;-74
2022/11/21 09:40:32;;;;;;;0.20;0.20;;;;;;;5.03;100.00;95359.81;4980683;28;20038;-73
2022/11/21 09:43:37;;;;;;;0.13;0.13;;;;;;;5.08;100.00;95370.50;4982135;28;20050;-74
2022/11/21 09:46:35;;;;;;;0.20;0.20;;;;;;;5.24;100.00;95361.75;4983340;28;20131;-73
2022/11/21 09:49:24;;;;;;;0.20;0.20;;;;;;;5.66;100.00;95353.34;4971952;28;20050;-73
2022/11/21 09:52:12;;;;;;;0.20;0.20;;;;;;;6.18;100.00;95349.53;4981474;28;20361;-73
2022/11/21 09:55:03;;;;;;;0.10;0.10;;;;;;;6.31;100.00;95352.63;4981323;28;20420;-71
2022/11/21 09:57:49;;;;;;;0.20;0.20;;;;;;;6.00;100.00;95343.50;4970885;28;20046;-76
2022/11/21 10:00:35;;;;;;;0.20;0.20;;;;;;;5.75;100.00;95348.41;4980976;28;20533;-76
2022/11/21 10:03:25;;;;;;;0.13;0.13;;;;;;;6.03;100.00;95344.84;4981857;28;20046;-76
2022/11/21 10:06:18;;;;;;;0.10;0.10;;;;;;;6.01;100.00;95336.31;4973871;28;20361;-74
2022/11/21 10:09:33;;;;;;;0.20;0.20;;;;;;;5.88;100.00;95322.31;4972145;28;20780;-72
2022/11/21 10:12:44;;;;;;;0.20;0.20;;;;;;;6.72;100.00;95317.72;4981387;28;20540;-76
2022/11/21 10:15:54;;;;;;;0.28;0.20;;;;;;;6.79;100.00;95311.13;4983100;28;20503;-74
2022/11/21 10:19:05;;;;;;;0.10;0.10;;;;;;;5.43;100.00;95321.69;4978728;28;20424;-71
2022/11/21 10:22:16;;;;;;;0.10;0.10;;;;;;;5.40;100.00;95316.88;4978539;28;20355;-75
2022/11/21 10:25:19;;;;;;;0.10;0.10;;;;;;;5.42;100.00;95304.16;4983224;28;20049;-73
2022/11/21 10:28:58;;;;;;;0.10;0.10;;;;;;;7.04;100.00;95313.19;4972704;28;20038;-71
2022/11/21 10:31:45;;;;;;;0.20;0.20;;;;;;;7.10;100.00;95303.41;4975417;28;20054;-74
2022/11/21 10:34:36;;;;;;;0.35;0.32;;;;;;;7.32;100.00;95296.13;4978785;28;20045;-74
2022/11/21 10:37:35;;;;;;;0.10;0.10;;;;;;;7.41;100.00;95294.59;4981433;28;20327;-76
2022/11/21 10:40:46;;;;;;;0.20;0.20;;;;;;;6.53;100.00;95283.47;4980379;28;20038;-76
2022/11/21 10:47:00;;;;;;;0.10;0.10;;;;;;;6.22;100.00;95268.28;4977922;28;20041;-74
2022/11/21 10:49:48;;;;;;;0.20;0.20;;;;;;;6.38;100.00;95278.00;4977180;28;20053;-72
2022/11/21 10:56:21;;;;;;;0.10;0.10;;;;;;;5.20;100.00;95259.03;4980270;28;20039;-73
2022/11/21 10:59:24;;;;;;;0.10;0.10;;;;;;;5.25;100.00;95269.72;4977498;28;20042;-76
2022/11/21 11:02:13;;;;;;;0.10;0.10;;;;;;;5.29;100.00;95261.03;4966219;28;20549;-73
2022/11/21 11:05:21;;;;;;;0.10;0.10;;;;;;;5.79;100.00;95267.25;4949659;28;20431;-72
2022/11/21 11:08:12;;;;;;;0.20;0.20;;;;;;;6.02;100.00;95268.88;4941947;28;20054;-75
2022/11/21 11:11:14;;;;;;;0.10;0.10;;;;;;;5.72;100.00;95256.00;4942729;28;20039;-72
2022/11/21 11:14:05;;;;;;;0.10;0.10;;;;;;;5.91;100.00;95265.28;4939336;28;20074;-74
2022/11/21 11:16:51;;;;;;;;;;;;;;;6.09;100.00;95256.22;4941486;28;20081;-74
2022/11/21 11:19:37;;;;;;;0.10;0.10;;;;;;;5.60;100.00;95258.78;4939913;28;19929;-75
2022/11/21 11:22:29;;;;;;;0.10;0.10;;;;;;;5.30;100.00;95261.84;4938770;28;20586;-75
2022/11/21 11:25:16;;;;;;;0.10;0.10;;;;;;;4.98;100.00;95245.69;4941739;28;20058;-73
2022/11/21 11:28:06;;;;;;;0.10;0.10;;;;;;;5.14;100.00;95234.31;4944276;28;20043;-74
2022/11/21 11:30:56;;;;;;;0.20;0.20;;;;;;;5.10;100.00;95237.66;4739701;28;10000406;-76
2022/11/21 11:33:54;;;;;;;0.20;0.20;;;;;;;5.46;100.00;95239.78;4597260;28;10000300;-74
2022/11/21 11:36:54;;;;;;;0.20;0.20;;;;;;;5.07;100.00;95241.63;4943414;28;20066;-73
2022/11/21 11:39:54;;;;;;;0.10;0.10;;;;;;;5.29;100.00;95236.34;4905353;28;20066;-75
2022/11/21 11:47:32;;;;;;;0.10;0.10;;;;;;;5.13;100.00;95215.97;4943350;28;20225;-72
2022/11/21 11:50:14;;;;;;;0.10;0.10;;;;;;;5.17;100.00;95215.22;4937964;28;20043;-73
2022/11/21 11:53:12;;;;;;;0.20;0.20;;;;;;;5.12;100.00;95209.06;4939025;28;20595;-75
2022/11/21 11:56:11;;;;;;;0.10;0.10;;;;;;;4.98;100.00;95208.59;4940165;28;20444;-71
2022/11/21 11:59:02;;;;;;;0.15;0.15;;;;;;;5.11;100.00;95202.94;4937378;28;20680;-73
2022/11/21 12:02:15;;;;;;;0.10;0.10;;;;;;;5.00;100.00;95206.50;4938533;28;20043;-73
2022/11/21 12:05:08;;;;;;;0.20;0.20;;;;;;;5.13;100.00;95194.75;4959619;28;20573;-70
2022/11/21 12:08:04;;;;;;;0.20;0.20;;;;;;;5.16;100.00;95192.41;4964619;28;20050;-74
2022/11/21 12:14:12;;;;;;;0.20;0.20;;;;;;;5.19;100.00;95178.66;4981363;28;20531;-73
2022/11/21 12:16:58;;;;;;;0.10;0.10;;;;;;;5.07;100.00;95175.31;4981652;28;20081;-76
2022/11/21 12:19:44;;;;;;;0.20;0.20;;;;;;;5.10;100.00;95158.91;4980803;28;20042;-75
2022/11/21 12:22:30;;;;;;;0.20;0.20;;;;;;;5.11;100.00;95157.88;4979703;28;20099;-76
2022/11/21 12:25:20;;;;;;;0.20;0.20;;;;;;;5.22;100.00;95169.44;4982547;28;20081;-75
2022/11/21 12:28:23;;;;;;;0.13;0.13;;;;;;;5.34;100.00;95166.66;4977667;28;20145;-73
2022/11/21 12:31:21;;;;;;;0.10;0.10;;;;;;;5.18;100.00;95160.34;4969724;28;20799;-75
2022/11/21 12:34:23;;;;;;;0.10;0.10;;;;;;;5.12;100.00;95156.00;4968080;28;20079;-76
2022/11/21 12:37:36;;;;;;;0.10;0.10;;;;;;;5.03;100.00;95155.63;4979119;28;20542;-74
2022/11/21 12:40:47;;;;;;;0.10;0.10;;;;;;;5.25;100.00;95155.66;4955203;28;20050;-73
2022/11/21 12:43:56;;;;;;;0.15;0.15;;;;;;;5.32;100.00;95162.38;4979111;28;20057;-74
2022/11/21 12:47:08;;;;;;;0.20;0.20;;;;;;;5.04;100.00;95149.28;4969254;28;20115;-76
2022/11/21 12:56:50;;;;;;;0.13;0.13;;;;;;;4.89;100.00;95135.81;4977030;28;20046;-73
2022/11/21 12:59:49;;;;;;;0.10;0.10;;;;;;;4.80;100.00;95129.34;4955997;28;20045;-77
2022/11/21 13:03:01;;;;;;;0.17;0.17;;;;;;;4.89;100.00;95115.41;4978842;28;20052;-76
2022/11/21 13:05:52;;;;;;;0.13;0.13;;;;;;;5.17;100.00;95106.50;4979325;28;20058;-72
2022/11/21 13:08:39;;;;;;;0.20;0.20;;;;;;;5.06;100.00;95109.25;4977965;28;20124;-76
2022/11/21 13:15:05;;;;;;;0.10;0.10;;;;;;;5.36;100.00;95108.81;4983855;28;20059;-76
2022/11/21 13:18:24;;;;;;;0.20;0.20;;;;;;;5.65;100.00;95112.06;4971175;28;20424;-76
2022/11/21 13:21:42;;;;;;;0.10;0.10;;;;;;;5.50;100.00;95108.19;4979947;28;20129;-75
2022/11/21 13:24:55;;;;;;;0.20;0.20;;;;;;;5.21;100.00;95102.31;4982607;28;20037;-74
2022/11/21 13:27:42;;;;;;;0.10;0.10;;;;;;;5.82;100.00;95096.84;4983772;28;20049;-76
2022/11/21 13:30:27;;;;;;;0.10;0.10;;;;;;;5.67;100.00;95099.34;4982831;28;20081;-76
2022/11/21 13:33:34;;;;;;;0.13;0.13;;;;;;;5.67;100.00;95078.09;4968219;28;20050;-74
2022/11/21 13:36:26;;;;;;;0.20;0.20;;;;;;;5.50;100.00;95071.06;4981398;28;20101;-73
2022/11/21 13:39:15;;;;;;;0.20;0.20;;;;;;;5.40;100.00;95073.59;4960973;28;20657;-73
2022/11/21 13:45:47;;;;;;;0.20;0.20;;;;;;;5.24;100.00;95066.53;4981593;28;20260;-76
2022/11/21 13:49:03;;;;;;;0.10;0.10;;;;;;;5.27;100.00;95058.06;4983308;28;20189;-73
2022/11/21 13:51:53;;;;;;;0.20;0.20;;;;;;;5.21;100.00;95049.28;4980748;28;20048;-75
2022/11/21 13:55:00;;;;;;;0.10;0.10;;;;;;;5.14;100.00;95031.97;4982422;28;20049;-75
2022/11/21 13:58:38;;;;;;;0.20;0.20;;;;;;;5.22;100.00;95032.31;4981735;28;20073;-76
2022/11/21 14:02:02;;;;;;;0.25;0.20;;;;;;;5.38;100.00;95021.88;4933621;28;20061;-77